Time;durP1;ratioP1;P1;durP2;ratioP2;P2;SDS_P1;SDS_P2;PMS_P1;PMS_P2;Temp;Humidity;BMP_temperature;BMP_pressure;BME280_temperature;BME280_humidity;BME280_pressure;Samples;Min_cycle;Max_cycle;Signal;HPM_P1;HPM_P2
2023/05/23 00:01:23;;;;;;;14.30;9.07;;;;;;;42.01;36.95;101050.63;5094937;28;20182;-87
2023/05/23 00:03:51;;;;;;;13.43;6.30;;;;;;;41.97;37.01;101037.97;5094902;28;20509;-87
2023/05/23 00:06:22;;;;;;;22.07;6.33;;;;;;;41.95;37.13;101037.50;5098151;28;20895;-87
2023/05/23 00:08:49;;;;;;;16.30;7.27;;;;;;;41.99;36.74;101032.97;5094822;28;20476;-88
2023/05/23 00:11:15;;;;;;;13.27;6.80;;;;;;;41.99;37.27;101024.81;5095064;28;20981;-87
2023/05/23 00:13:41;;;;;;;12.93;6.77;;;;;;;42.06;37.11;101033.28;5095256;28;20446;-88
2023/05/23 00:16:09;;;;;;;15.80;7.67;;;;;;;41.92;36.86;101019.09;5095081;28;20429;-89
2023/05/23 00:18:41;;;;;;;15.80;9.80;;;;;;;41.96;36.89;101014.59;5081251;28;20434;-87
2023/05/23 00:21:08;;;;;;;22.83;11.93;;;;;;;41.93;37.14;101015.22;5074716;28;20409;-88
2023/05/23 00:23:34;;;;;;;18.93;10.40;;;;;;;41.99;37.38;101030.25;5074665;28;20551;-88
2023/05/23 00:26:00;;;;;;;18.80;9.63;;;;;;;42.03;37.36;101028.47;5074529;28;20413;-88
2023/05/23 00:28:26;;;;;;;18.33;9.97;;;;;;;42.00;37.17;101015.53;5079696;28;20475;-87
2023/05/23 00:30:52;;;;;;;15.60;10.87;;;;;;;42.00;37.45;101010.88;5094649;28;20236;-87
2023/05/23 00:33:20;;;;;;;18.13;10.33;;;;;;;42.03;37.14;101012.13;5094570;28;20409;-86
2023/05/23 00:35:48;;;;;;;13.97;10.77;;;;;;;42.06;37.29;101014.19;5094552;28;20443;-87
2023/05/23 00:38:14;;;;;;;16.90;11.20;;;;;;;42.03;37.81;101012.13;5094517;28;20413;-88
2023/05/23 00:40:40;;;;;;;17.63;9.87;;;;;;;42.04;37.71;101013.72;5094429;28;20405;-88
2023/05/23 00:43:09;;;;;;;21.57;8.73;;;;;;;42.02;37.34;101005.09;5094573;28;20452;-88
2023/05/23 00:45:35;;;;;;;15.20;8.97;;;;;;;41.98;37.23;100998.69;5094183;28;20417;-90
2023/05/23 00:48:02;;;;;;;17.63;9.00;;;;;;;41.96;37.84;100988.13;5094345;28;20461;-87
2023/05/23 00:50:29;;;;;;;13.73;8.77;;;;;;;42.01;37.51;100992.59;5094370;28;20421;-87
2023/05/23 00:52:56;;;;;;;23.40;11.90;;;;;;;41.86;37.76;100955.81;5094081;28;20420;-88
2023/05/23 00:55:23;;;;;;;18.87;10.33;;;;;;;41.88;37.43;100955.50;5094219;28;20424;-88
2023/05/23 00:57:54;;;;;;;11.93;7.87;;;;;;;41.84;37.40;100936.28;5094059;28;20482;-89
2023/05/23 01:00:20;;;;;;;15.07;8.40;;;;;;;41.82;37.51;100928.44;5094162;28;20447;-88
2023/05/23 01:02:50;;;;;;;22.43;10.03;;;;;;;41.80;37.75;100922.53;5094164;28;20929;-88
2023/05/23 01:05:16;;;;;;;16.10;9.03;;;;;;;41.80;37.58;100927.97;5093833;28;20409;-88
2023/05/23 01:07:50;;;;;;;14.13;7.33;;;;;;;41.65;37.63;100914.13;5093732;28;20468;-89
2023/05/23 01:10:20;;;;;;;19.93;7.90;;;;;;;41.57;38.15;100910.34;5093850;28;20760;-88
2023/05/23 01:13:28;;;;;;;14.60;7.63;;;;;;;41.61;38.05;100916.69;5093755;28;20423;-88
2023/05/23 01:16:14;;;;;;;18.10;10.53;;;;;;;41.62;37.99;100918.31;5093855;28;20976;-89
2023/05/23 01:18:53;;;;;;;16.63;7.20;;;;;;;41.46;38.36;100909.91;5093784;28;20439;-89
2023/05/23 01:21:21;;;;;;;14.23;7.20;;;;;;;41.68;38.00;100924.34;5093615;28;20508;-88
2023/05/23 01:24:02;;;;;;;12.23;6.87;;;;;;;41.67;37.76;100914.59;5093641;28;20409;-88
2023/05/23 01:26:43;;;;;;;15.20;7.77;;;;;;;41.75;37.83;100922.75;5093549;28;20477;-88
2023/05/23 01:29:40;;;;;;;15.20;6.70;;;;;;;41.74;37.87;100915.69;5093459;28;20431;-87
2023/05/23 01:32:10;;;;;;;12.97;7.07;;;;;;;41.78;37.74;100907.66;5092817;28;20417;-88
2023/05/23 01:34:37;;;;;;;20.50;7.73;;;;;;;41.81;37.46;100913.25;5087802;28;20532;-87
2023/05/23 01:37:09;;;;;;;23.60;8.93;;;;;;;41.82;36.99;100903.94;5096288;28;20436;-88
2023/05/23 01:39:35;;;;;;;19.70;8.50;;;;;;;41.82;37.74;100901.22;5113553;28;20416;-88
2023/05/23 01:42:02;;;;;;;20.97;8.13;;;;;;;41.83;37.88;100902.00;5113940;28;20419;-88
2023/05/23 01:44:28;;;;;;;26.40;9.17;;;;;;;41.83;37.54;100902.81;5113465;28;20440;-88
2023/05/23 01:46:54;;;;;;;24.10;8.73;;;;;;;41.83;37.64;100905.53;5113380;28;20416;-88
2023/05/23 01:49:22;;;;;;;13.57;5.90;;;;;;;41.81;37.58;100907.00;5113528;28;20420;-89
2023/05/23 01:51:48;;;;;;;14.10;7.40;;;;;;;41.77;37.91;100893.22;5111259;28;20978;-89
2023/05/23 01:54:18;;;;;;;16.07;5.50;;;;;;;41.71;37.82;100891.81;5093230;28;20421;-88
2023/05/23 01:56:45;;;;;;;14.77;5.70;;;;;;;41.75;37.92;100892.78;5092942;28;20436;-88
2023/05/23 01:59:11;;;;;;;16.50;7.03;;;;;;;41.73;37.76;100888.75;5093239;28;20448;-88
2023/05/23 02:01:38;;;;;;;18.27;7.43;;;;;;;41.76;37.80;100882.69;5092837;28;20417;-89
2023/05/23 02:04:04;;;;;;;13.10;4.73;;;;;;;41.87;37.72;100892.03;5092922;28;20413;-88
2023/05/23 02:06:30;;;;;;;14.83;6.73;;;;;;;41.74;37.54;100883.00;5092936;28;20971;-88
2023/05/23 02:08:56;;;;;;;17.27;5.80;;;;;;;41.78;37.80;100885.84;5092317;28;20477;-88
2023/05/23 02:11:22;;;;;;;13.00;5.10;;;;;;;41.76;37.10;100880.75;5092655;28;20428;-87
2023/05/23 02:13:49;;;;;;;9.00;3.90;;;;;;;41.84;36.83;100879.06;5092717;28;20417;-87
2023/05/23 02:16:15;;;;;;;11.60;4.53;;;;;;;41.83;36.49;100880.22;5092733;28;20918;-88
2023/05/23 02:18:41;;;;;;;16.53;5.10;;;;;;;41.86;36.66;100874.09;5086825;28;20425;-88
2023/05/23 02:21:07;;;;;;;13.63;4.77;;;;;;;41.92;36.81;100872.75;5072319;28;20406;-88
2023/05/23 02:23:33;;;;;;;16.37;4.97;;;;;;;41.93;37.08;100868.09;5072159;28;20459;-87
2023/05/23 02:25:59;;;;;;;10.20;5.03;;;;;;;41.95;37.13;100869.38;5072466;28;20555;-89
2023/05/23 02:28:24;;;;;;;26.37;5.97;;;;;;;41.88;37.03;100862.88;5071835;28;20289;-87
2023/05/23 02:30:50;;;;;;;14.47;5.47;;;;;;;41.95;37.28;100863.13;5087713;28;20417;-88
2023/05/23 02:33:16;;;;;;;17.13;5.53;;;;;;;41.97;37.36;100860.84;5092394;28;20654;-89
2023/05/23 02:35:42;;;;;;;15.13;4.90;;;;;;;41.97;37.17;100855.41;5092341;28;20428;-88
2023/05/23 02:38:08;;;;;;;13.00;4.33;;;;;;;41.92;36.70;100850.16;5092499;28;20473;-88
2023/05/23 02:40:34;;;;;;;16.87;4.53;;;;;;;41.89;36.91;100840.72;5092553;28;20195;-90
2023/05/23 02:43:00;;;;;;;12.80;4.50;;;;;;;41.90;36.80;100841.53;5092227;28;20435;-87
2023/05/23 02:45:26;;;;;;;9.53;3.70;;;;;;;41.91;36.85;100848.56;5092393;28;20202;-88
2023/05/23 02:47:52;;;;;;;13.67;4.93;;;;;;;41.94;36.95;100847.91;5072222;28;20485;-88
2023/05/23 02:50:18;;;;;;;10.30;3.97;;;;;;;41.88;36.72;100847.31;5071997;28;20476;-88
2023/05/23 02:52:44;;;;;;;11.57;4.27;;;;;;;41.89;36.67;100850.84;5071906;28;20464;-88
2023/05/23 02:55:10;;;;;;;17.80;3.90;;;;;;;41.89;36.31;100856.28;5071904;28;20430;-87
2023/05/23 02:57:36;;;;;;;11.00;4.33;;;;;;;41.86;36.49;100853.09;5071884;28;20438;-87
2023/05/23 03:00:02;;;;;;;10.17;3.77;;;;;;;41.86;36.73;100858.53;5072008;28;20459;-88
2023/05/23 03:02:28;;;;;;;23.43;4.00;;;;;;;41.88;36.38;100863.66;5071679;28;20414;-89
2023/05/23 03:04:54;;;;;;;11.70;4.63;;;;;;;41.85;36.54;100862.38;5071810;28;20817;-88
2023/05/23 03:07:20;;;;;;;14.63;4.20;;;;;;;41.89;36.94;100859.00;5071717;28;20223;-88
2023/05/23 03:09:46;;;;;;;19.50;4.67;;;;;;;41.88;36.45;100854.69;5071678;28;20895;-88
2023/05/23 03:12:12;;;;;;;15.50;4.83;;;;;;;41.89;37.15;100867.97;5071993;28;20179;-88
2023/05/23 03:14:38;;;;;;;14.03;5.40;;;;;;;41.90;36.71;100866.06;5071820;28;20171;-88
2023/05/23 03:17:04;;;;;;;18.90;4.73;;;;;;;41.84;36.76;100862.72;5071545;28;20199;-85
2023/05/23 03:19:30;;;;;;;13.30;4.70;;;;;;;41.83;36.57;100864.66;5075032;28;20175;-88
2023/05/23 03:21:56;;;;;;;19.83;4.20;;;;;;;41.84;36.55;100866.25;5091929;28;20470;-88
2023/05/23 03:24:22;;;;;;;10.87;4.27;;;;;;;41.83;36.77;100878.28;5091733;28;20259;-88
2023/05/23 03:26:48;;;;;;;8.27;3.43;;;;;;;41.85;36.65;100870.56;5091725;28;20421;-88
2023/05/23 03:29:14;;;;;;;8.83;3.40;;;;;;;41.77;36.20;100870.66;5091646;28;20581;-87
2023/05/23 03:31:40;;;;;;;11.57;3.40;;;;;;;41.80;36.45;100872.69;5091733;28;20284;-88
2023/05/23 03:34:06;;;;;;;15.87;5.00;;;;;;;41.82;36.66;100865.78;5091769;28;20476;-88
2023/05/23 03:36:32;;;;;;;13.73;4.63;;;;;;;41.87;36.33;100875.69;5091712;28;20424;-86
2023/05/23 03:38:59;;;;;;;13.20;3.80;;;;;;;41.86;36.38;100868.63;5074907;28;20410;-88
2023/05/23 03:41:25;;;;;;;14.17;4.60;;;;;;;41.81;36.53;100871.59;5075337;28;20508;-87
2023/05/23 03:43:51;;;;;;;12.40;4.57;;;;;;;41.83;36.06;100878.28;5075232;28;20432;-87
2023/05/23 03:46:17;;;;;;;11.67;4.20;;;;;;;41.79;36.64;100882.00;5075247;28;20430;-88
2023/05/23 03:48:43;;;;;;;9.93;3.67;;;;;;;41.88;36.14;100896.34;5075136;28;20261;-88
2023/05/23 03:51:10;;;;;;;15.50;3.70;;;;;;;41.88;36.28;100901.00;5075751;28;20425;-87
2023/05/23 03:53:35;;;;;;;12.73;3.53;;;;;;;41.83;36.15;100893.84;5075220;28;20471;-88
2023/05/23 03:56:01;;;;;;;13.13;4.50;;;;;;;41.82;36.37;100901.22;5075293;28;20921;-88
2023/05/23 03:58:27;;;;;;;19.03;4.03;;;;;;;41.86;36.51;100893.94;5089153;28;20190;-88
2023/05/23 04:00:53;;;;;;;9.60;4.53;;;;;;;41.88;36.03;100896.34;5095403;28;20197;-87
2023/05/23 04:03:19;;;;;;;14.70;6.33;;;;;;;41.83;36.16;100896.56;5095349;28;20171;-87
2023/05/23 04:05:45;;;;;;;14.53;4.27;;;;;;;41.87;36.47;100908.41;5095184;28;20478;-88
2023/05/23 04:08:11;;;;;;;14.17;5.47;;;;;;;41.92;36.33;100907.38;5094857;28;20473;-87
2023/05/23 04:10:37;;;;;;;8.43;3.60;;;;;;;41.86;36.40;100907.56;5095111;28;20957;-88
2023/05/23 04:13:04;;;;;;;12.73;3.53;;;;;;;41.85;36.40;100911.44;5095017;28;20417;-88
2023/05/23 04:15:29;;;;;;;15.40;4.20;;;;;;;41.77;36.35;100898.69;5094837;28;20417;-88
2023/05/23 04:17:55;;;;;;;15.10;4.00;;;;;;;41.85;36.23;100916.88;5095198;28;20420;-88
2023/05/23 04:20:21;;;;;;;13.23;4.50;;;;;;;41.82;36.44;100916.75;5094814;28;20462;-89
2023/05/23 04:22:47;;;;;;;14.33;3.43;;;;;;;41.82;36.28;100919.47;5094889;28;20181;-87
2023/05/23 04:25:13;;;;;;;10.80;4.93;;;;;;;41.84;35.83;100925.38;5094963;28;20770;-88
2023/05/23 04:27:39;;;;;;;12.70;3.80;;;;;;;41.82;36.34;100927.66;5094710;28;20195;-88
2023/05/23 04:30:08;;;;;;;14.73;4.57;;;;;;;41.80;35.84;100930.69;5094787;28;20435;-88
2023/05/23 04:32:35;;;;;;;13.80;6.00;;;;;;;41.79;35.84;100922.84;5094604;28;20421;-89
2023/05/23 04:35:01;;;;;;;11.20;5.27;;;;;;;41.76;35.86;100923.53;5094697;28;20420;-88
2023/05/23 04:37:27;;;;;;;14.00;4.27;;;;;;;41.78;35.98;100932.97;5094545;28;20396;-88
2023/05/23 04:39:53;;;;;;;11.93;5.70;;;;;;;41.79;36.01;100926.38;5094519;28;20512;-88
2023/05/23 04:42:23;;;;;;;17.63;6.30;;;;;;;41.84;36.04;100941.72;5085665;28;20509;-87
2023/05/23 04:44:50;;;;;;;17.57;5.30;;;;;;;41.81;36.27;100945.13;5074205;28;20425;-88
2023/05/23 04:47:16;;;;;;;13.90;5.00;;;;;;;41.77;36.09;100953.16;5074159;28;20492;-88
2023/05/23 04:49:42;;;;;;;12.43;4.30;;;;;;;41.82;36.24;100954.91;5074066;28;20414;-88
2023/05/23 04:52:08;;;;;;;9.53;3.27;;;;;;;41.78;35.63;100960.19;5074126;28;20421;-88
2023/05/23 04:54:36;;;;;;;18.97;4.70;;;;;;;41.79;35.51;100956.34;5094339;28;20412;-87
2023/05/23 04:57:02;;;;;;;13.43;4.37;;;;;;;41.80;36.00;100957.94;5094151;28;20445;-87
2023/05/23 04:59:28;;;;;;;14.67;4.67;;;;;;;41.80;36.10;100952.50;5094399;28;20440;-88
2023/05/23 05:01:54;;;;;;;9.93;3.60;;;;;;;41.81;36.45;100954.09;5094141;28;20409;-86
2023/05/23 05:04:21;;;;;;;17.80;3.63;;;;;;;41.82;36.79;100958.41;5093911;28;20468;-88
2023/05/23 05:06:47;;;;;;;11.50;4.83;;;;;;;41.78;36.18;100954.75;5094116;28;20409;-88
2023/05/23 05:09:13;;;;;;;13.93;3.97;;;;;;;41.72;36.15;100955.25;5093673;28;20469;-87
2023/05/23 05:11:39;;;;;;;11.70;4.70;;;;;;;41.73;36.47;100963.09;5093895;28;20452;-88
2023/05/23 05:14:05;;;;;;;10.50;4.60;;;;;;;41.78;36.33;100971.09;5093902;28;20428;-87
2023/05/23 05:16:31;;;;;;;17.83;7.43;;;;;;;41.78;36.28;100965.66;5097893;28;20416;-88
2023/05/23 05:18:57;;;;;;;16.97;4.87;;;;;;;41.86;36.64;100972.97;5104178;28;20420;-88
2023/05/23 05:21:23;;;;;;;15.47;5.50;;;;;;;41.88;36.30;100977.31;5093672;28;20424;-87
2023/05/23 05:23:50;;;;;;;15.20;5.33;;;;;;;41.88;36.39;100978.09;5093689;28;20646;-87
2023/05/23 05:26:16;;;;;;;26.50;5.30;;;;;;;41.89;36.19;100982.41;5094935;28;20631;-88
2023/05/23 05:28:42;;;;;;;15.20;4.37;;;;;;;41.86;36.43;100972.97;5093120;28;20448;-88
2023/05/23 05:31:08;;;;;;;14.47;4.53;;;;;;;41.86;36.01;100972.16;5093455;28;20501;-86
2023/05/23 05:33:35;;;;;;;13.20;4.47;;;;;;;41.88;36.17;100971.84;5093150;28;20178;-89
2023/05/23 05:36:06;;;;;;;9.40;4.67;;;;;;;41.89;35.92;100981.63;5093513;28;20769;-88
2023/05/23 05:38:32;;;;;;;12.93;4.03;;;;;;;41.86;35.83;100975.69;5088280;28;20466;-86
2023/05/23 05:40:58;;;;;;;9.63;4.07;;;;;;;41.88;35.77;100978.09;5074482;28;20843;-87
2023/05/23 05:43:25;;;;;;;16.93;5.93;;;;;;;41.91;35.87;100984.81;5073092;28;21039;-88
2023/05/23 05:45:51;;;;;;;26.60;6.43;;;;;;;41.88;36.38;100988.19;5072901;28;20414;-88
2023/05/23 05:48:17;;;;;;;9.70;5.60;;;;;;;41.86;36.20;100992.03;5076332;28;20481;-86
2023/05/23 05:50:47;;;;;;;11.57;5.57;;;;;;;41.88;36.28;101004.53;5093082;28;20436;-87
2023/05/23 05:53:13;;;;;;;11.30;5.10;;;;;;;41.92;36.25;101019.88;5096878;28;20413;-90
2023/05/23 05:55:42;;;;;;;15.53;5.30;;;;;;;41.89;36.55;101017.84;5093646;28;20452;-89
2023/05/23 05:58:08;;;;;;;12.43;6.07;;;;;;;41.85;36.71;101012.22;5076643;28;20429;-88
2023/05/23 06:00:40;;;;;;;28.50;8.30;;;;;;;41.82;36.68;101014.84;5092893;28;20534;-92
2023/05/23 06:03:10;;;;;;;14.50;7.60;;;;;;;41.88;36.87;101027.13;5092928;28;20459;-90
2023/05/23 06:05:36;;;;;;;15.23;5.80;;;;;;;41.88;36.77;101020.91;5093117;28;20420;-87
2023/05/23 06:08:03;;;;;;;17.87;5.67;;;;;;;41.84;36.74;101029.72;5087674;28;20481;-87
2023/05/23 06:10:29;;;;;;;18.23;5.17;;;;;;;41.90;36.70;101037.69;5072202;28;20929;-88
2023/05/23 06:12:58;;;;;;;15.77;5.07;;;;;;;41.91;36.37;101044.75;5072476;28;20485;-88
2023/05/23 06:15:25;;;;;;;13.70;4.90;;;;;;;41.92;36.49;101040.88;5072341;28;20509;-87
2023/05/23 06:17:51;;;;;;;10.77;4.47;;;;;;;41.86;36.37;101037.53;5072400;28;20410;-85
2023/05/23 06:20:17;;;;;;;13.10;4.57;;;;;;;41.91;36.21;101042.03;5072207;28;20428;-82
2023/05/23 06:22:43;;;;;;;8.87;4.27;;;;;;;41.90;36.09;101049.41;5072225;28;20406;-85
2023/05/23 06:25:09;;;;;;;14.07;4.90;;;;;;;41.92;35.76;101046.34;5071946;28;20498;-83
2023/05/23 06:27:36;;;;;;;13.83;5.03;;;;;;;41.97;36.07;101051.59;5072449;28;20686;-86
2023/05/23 06:30:04;;;;;;;14.83;6.40;;;;;;;41.96;35.97;101060.91;5072294;28;20453;-85
2023/05/23 06:32:30;;;;;;;14.10;5.47;;;;;;;42.03;36.43;101072.88;5072049;28;20501;-85
2023/05/23 06:34:56;;;;;;;14.37;5.40;;;;;;;42.00;36.28;101075.47;5071921;28;20426;-85
2023/05/23 06:37:21;;;;;;;15.77;5.37;;;;;;;42.05;36.33;101091.63;5072259;28;20651;-86
2023/05/23 06:39:47;;;;;;;10.17;4.63;;;;;;;42.06;36.37;101091.31;5072040;28;20199;-87
2023/05/23 06:42:15;;;;;;;14.10;5.60;;;;;;;42.12;36.02;101100.09;5068632;28;20419;-87
2023/05/23 06:44:41;;;;;;;14.50;6.87;;;;;;;42.16;36.44;101105.66;5068430;28;20176;-84
2023/05/23 06:47:07;;;;;;;16.13;11.10;;;;;;;42.13;36.49;101098.97;5050469;28;20447;-87
2023/05/23 06:49:33;;;;;;;18.70;13.37;;;;;;;42.14;36.71;101106.81;5051730;28;20454;-86
2023/05/23 06:51:59;;;;;;;24.50;16.40;;;;;;;42.13;37.17;101118.03;5066000;28;20454;-86
2023/05/23 06:54:25;;;;;;;27.87;16.63;;;;;;;42.11;37.14;101115.66;5051904;28;20418;-86
2023/05/23 06:56:50;;;;;;;27.20;19.40;;;;;;;42.06;37.69;101117.75;5052083;28;20215;-85
2023/05/23 06:59:16;;;;;;;23.77;16.70;;;;;;;42.02;37.72;101122.25;5068578;28;20868;-86
2023/05/23 07:01:42;;;;;;;25.73;17.40;;;;;;;41.98;37.91;101124.84;5063882;28;20462;-86
2023/05/23 07:04:08;;;;;;;18.43;12.70;;;;;;;42.01;38.01;101126.91;5051953;28;20529;-86
2023/05/23 07:06:35;;;;;;;20.60;15.23;;;;;;;41.89;38.46;101131.47;5051790;28;20510;-86
2023/05/23 07:09:02;;;;;;;22.57;14.90;;;;;;;41.94;38.52;101123.13;5075293;28;21540;-85
2023/05/23 07:11:28;;;;;;;16.27;12.03;;;;;;;41.90;38.06;101130.34;5088724;28;20421;-85
2023/05/23 07:13:54;;;;;;;20.17;11.90;;;;;;;41.88;38.33;101122.50;5093987;28;20499;-85
2023/05/23 07:16:20;;;;;;;18.27;13.37;;;;;;;41.88;38.44;101125.22;5095457;28;20409;-87
2023/05/23 07:18:46;;;;;;;18.97;13.40;;;;;;;41.78;38.53;101123.66;5095616;28;20456;-82
2023/05/23 07:24:43;;;;;;;21.80;13.23;;;;;;;41.77;38.39;101132.16;5090349;28;20503;-83
2023/05/23 07:27:09;;;;;;;14.33;11.20;;;;;;;41.72;38.74;101146.72;5095300;28;20932;-84
2023/05/23 07:29:35;;;;;;;17.40;10.23;;;;;;;41.70;38.73;101148.19;5094122;28;20439;-86
2023/05/23 07:32:01;;;;;;;20.30;11.50;;;;;;;41.69;38.57;101155.56;5084677;28;20179;-85
2023/05/23 07:34:27;;;;;;;15.20;11.33;;;;;;;41.70;38.39;101159.88;5078393;28;20567;-86
2023/05/23 07:36:58;;;;;;;22.00;12.00;;;;;;;41.73;38.52;101145.59;5083098;28;20547;-83
2023/05/23 07:39:26;;;;;;;17.80;9.67;;;;;;;41.80;38.34;101164.97;5092511;28;20522;-85
2023/05/23 07:41:52;;;;;;;15.13;10.87;;;;;;;41.75;38.49;101165.19;5094240;28;20458;-84
2023/05/23 07:44:29;;;;;;;20.60;10.67;;;;;;;41.69;38.41;101174.63;5094770;28;20405;-82
2023/05/23 07:47:01;;;;;;;18.60;10.97;;;;;;;41.76;38.54;101183.13;5095884;28;20181;-85
2023/05/23 07:49:27;;;;;;;19.47;11.20;;;;;;;41.71;38.49;101169.66;5096506;28;20442;-81
2023/05/23 07:51:58;;;;;;;15.13;10.47;;;;;;;41.61;38.52;101184.41;5085572;28;20533;-82
2023/05/23 07:54:27;;;;;;;14.73;10.37;;;;;;;41.73;38.18;101178.28;5095309;28;20924;-83
2023/05/23 07:56:58;;;;;;;15.10;11.07;;;;;;;41.78;38.66;101191.75;5095092;28;20455;-85
2023/05/23 07:59:24;;;;;;;16.60;11.73;;;;;;;41.78;38.30;101196.41;5078003;28;20455;-82
2023/05/23 08:01:50;;;;;;;21.53;11.90;;;;;;;41.70;38.80;101187.13;5091060;28;20795;-84
2023/05/23 08:04:17;;;;;;;17.70;10.37;;;;;;;41.78;38.55;101193.69;5093671;28;20524;-81
2023/05/23 08:06:46;;;;;;;26.17;10.60;;;;;;;41.85;38.73;101200.22;5094364;28;20448;-82
2023/05/23 08:09:12;;;;;;;16.00;11.27;;;;;;;41.83;38.23;101201.69;5093056;28;20468;-81
2023/05/23 08:11:38;;;;;;;17.47;13.43;;;;;;;41.85;38.67;101199.44;5094476;28;20786;-83
2023/05/23 08:14:22;;;;;;;18.23;12.80;;;;;;;41.76;38.64;101199.47;5093893;28;20420;-83
2023/05/23 08:16:51;;;;;;;21.70;10.53;;;;;;;41.74;38.38;101200.88;5094855;28;20182;-85
2023/05/23 08:19:17;;;;;;;18.00;10.63;;;;;;;41.79;38.25;101204.25;5095294;28;20477;-83
2023/05/23 08:21:46;;;;;;;16.23;10.90;;;;;;;41.77;38.66;101203.78;5095007;28;20437;-87
2023/05/23 08:24:15;;;;;;;16.50;11.07;;;;;;;41.80;38.30;101200.41;5096074;28;20401;-86
2023/05/23 08:26:41;;;;;;;18.70;12.00;;;;;;;41.76;38.61;101202.19;5076965;28;20509;-83
2023/05/23 08:29:09;;;;;;;20.37;12.90;;;;;;;41.71;38.47;101194.16;5094642;28;20495;-84
2023/05/23 08:31:35;;;;;;;21.20;11.83;;;;;;;41.74;38.51;101200.88;5094722;28;20428;-82
2023/05/23 08:34:01;;;;;;;21.37;11.10;;;;;;;41.63;38.65;101200.44;5094002;28;20424;-83
2023/05/23 08:36:26;;;;;;;21.17;10.90;;;;;;;41.74;38.65;101192.69;5094096;28;20427;-80
2023/05/23 08:38:53;;;;;;;16.07;11.23;;;;;;;41.79;38.42;101190.63;5094129;28;20928;-87
2023/05/23 08:41:22;;;;;;;19.17;11.13;;;;;;;41.69;38.23;101176.56;5092670;28;20415;-86
2023/05/23 08:43:48;;;;;;;16.33;10.30;;;;;;;41.52;39.14;101180.91;5092799;28;20175;-85
2023/05/23 08:46:15;;;;;;;21.20;12.73;;;;;;;41.73;38.89;101185.66;5093774;28;20440;-83
2023/05/23 08:48:50;;;;;;;18.10;12.10;;;;;;;41.74;38.57;101182.66;5094144;28;20836;-86
2023/05/23 08:51:17;;;;;;;22.10;10.60;;;;;;;41.88;38.59;101177.00;5094178;28;20417;-86
2023/05/23 08:53:47;;;;;;;19.73;13.10;;;;;;;41.91;38.45;101176.31;5094052;28;20873;-85
2023/05/23 08:56:13;;;;;;;19.13;11.10;;;;;;;41.96;38.74;101184.31;5093253;28;20409;-86
2023/05/23 08:58:43;;;;;;;18.67;10.00;;;;;;;42.00;38.24;101185.28;5092844;28;20464;-85
2023/05/23 09:01:10;;;;;;;21.10;10.07;;;;;;;42.05;38.20;101184.28;5087307;28;20929;-85
2023/05/23 09:03:37;;;;;;;17.57;11.13;;;;;;;42.01;38.12;101186.88;5056575;28;20437;-85
2023/05/23 09:06:07;;;;;;;13.60;11.63;;;;;;;42.09;37.71;101177.06;5072747;28;20518;-86
2023/05/23 09:08:33;;;;;;;17.60;11.47;;;;;;;42.09;38.49;101183.31;5073037;28;20862;-86
2023/05/23 09:11:01;;;;;;;23.23;12.13;;;;;;;42.05;38.22;101176.94;5077921;28;20506;-81
2023/05/23 09:13:31;;;;;;;16.33;11.20;;;;;;;42.16;38.22;101174.66;5097114;28;20435;-82
2023/05/23 09:16:10;;;;;;;20.50;11.67;;;;;;;42.04;38.26;101175.31;5093345;28;20413;-78
2023/05/23 09:18:40;;;;;;;20.33;11.43;;;;;;;41.83;38.45;101177.97;5092991;28;20413;-79
2023/05/23 09:21:08;;;;;;;25.13;13.83;;;;;;;42.08;38.16;101167.28;5093054;28;20790;-78
2023/05/23 09:23:35;;;;;;;19.93;10.77;;;;;;;42.09;38.02;101172.41;5093085;28;20413;-80
2023/05/23 09:26:06;;;;;;;21.30;11.50;;;;;;;41.95;38.41;101177.28;5093046;28;20413;-81
2023/05/23 09:28:33;;;;;;;22.63;11.23;;;;;;;41.81;38.41;101173.97;5092895;28;20576;-81
2023/05/23 09:31:03;;;;;;;15.70;10.10;;;;;;;41.97;38.28;101175.03;5092686;28;20418;-81
2023/05/23 09:33:42;;;;;;;18.53;10.70;;;;;;;41.93;38.47;101179.53;5092539;28;20420;-81
2023/05/23 09:36:08;;;;;;;18.00;10.60;;;;;;;42.17;38.05;101162.59;5072316;28;20484;-81
2023/05/23 09:38:39;;;;;;;17.37;10.10;;;;;;;42.20;38.16;101175.59;5071470;28;20467;-81
2023/05/23 09:41:05;;;;;;;14.47;8.80;;;;;;;42.33;37.60;101160.91;5077123;28;20423;-81
2023/05/23 09:43:31;;;;;;;16.60;10.27;;;;;;;42.14;37.73;101169.50;5092015;28;20436;-81
2023/05/23 09:46:07;;;;;;;19.93;9.60;;;;;;;42.03;37.51;101175.63;5092954;28;20937;-84
2023/05/23 09:48:34;;;;;;;18.97;9.27;;;;;;;42.12;37.72;101176.41;5092697;28;20460;-85
2023/05/23 09:51:09;;;;;;;16.17;9.30;;;;;;;42.26;37.62;101168.81;5092710;28;20516;-86
2023/05/23 09:53:37;;;;;;;14.67;8.77;;;;;;;42.34;37.39;101172.63;5092702;28;20424;-86
2023/05/23 09:56:03;;;;;;;11.90;8.73;;;;;;;42.34;36.72;101162.50;5093129;28;20912;-83
2023/05/23 09:58:30;;;;;;;13.93;7.83;;;;;;;42.34;36.69;101159.78;5092268;28;20482;-83
2023/05/23 10:01:01;;;;;;;25.80;9.47;;;;;;;42.44;36.55;101153.16;5089053;28;20958;-84
2023/05/23 10:03:36;;;;;;;12.93;9.50;;;;;;;42.42;36.67;101135.50;5072118;28;20410;-84
2023/05/23 10:06:12;;;;;;;15.53;8.50;;;;;;;42.45;36.12;101140.31;5072072;28;20448;-84
2023/05/23 10:08:49;;;;;;;11.33;7.10;;;;;;;42.53;35.59;101140.25;5080867;28;20545;-84
2023/05/23 10:11:15;;;;;;;14.30;7.80;;;;;;;42.56;36.06;101131.41;5080853;28;20810;-84
2023/05/23 10:13:47;;;;;;;20.13;9.83;;;;;;;42.65;36.98;101123.97;5095319;28;20416;-83
2023/05/23 10:16:30;;;;;;;10.73;7.10;;;;;;;42.74;36.77;101120.41;5095319;28;20852;-82
2023/05/23 10:19:00;;;;;;;30.27;6.70;;;;;;;42.77;35.94;101125.97;5095584;28;20420;-82
2023/05/23 10:21:32;;;;;;;14.40;7.40;;;;;;;42.82;35.81;101112.13;5087969;28;20451;-82
2023/05/23 10:24:03;;;;;;;12.07;6.70;;;;;;;42.83;35.48;101119.19;5074572;28;20423;-82
2023/05/23 10:26:30;;;;;;;14.13;6.93;;;;;;;42.92;35.34;101117.19;5074703;28;20516;-82
2023/05/23 10:28:57;;;;;;;15.80;7.57;;;;;;;42.95;35.12;101120.38;5074634;28;20472;-82
2023/05/23 10:31:23;;;;;;;16.40;8.13;;;;;;;42.97;35.57;101120.81;5099056;28;20451;-81
2023/05/23 10:34:01;;;;;;;13.33;8.40;;;;;;;43.01;35.47;101117.13;5095089;28;20461;-82
2023/05/23 10:36:42;;;;;;;11.73;7.47;;;;;;;43.04;35.75;101116.47;5094719;28;20432;-79
2023/05/23 10:39:16;;;;;;;20.00;9.90;;;;;;;43.12;35.92;101121.03;5113527;28;20391;-79
2023/05/23 10:41:54;;;;;;;12.83;8.80;;;;;;;43.16;35.92;101115.72;5086003;28;20433;-78
2023/05/23 10:44:28;;;;;;;20.40;10.80;;;;;;;43.22;35.78;101113.53;5074522;28;20446;-78
2023/05/23 10:47:02;;;;;;;14.93;8.40;;;;;;;43.24;35.20;101111.28;5074752;28;20416;-79
2023/05/23 10:49:45;;;;;;;16.23;9.17;;;;;;;43.15;35.66;101111.34;5074285;28;20501;-80
2023/05/23 10:52:15;;;;;;;15.67;7.73;;;;;;;43.17;35.53;101101.72;5080438;28;20421;-82
2023/05/23 10:54:51;;;;;;;25.53;8.77;;;;;;;43.11;35.87;101107.72;5093065;28;20393;-83
2023/05/23 10:57:25;;;;;;;15.83;9.53;;;;;;;43.16;35.54;101097.41;5073843;28;20421;-83
2023/05/23 10:59:51;;;;;;;16.27;8.87;;;;;;;43.07;35.44;101084.97;5073693;28;20926;-82
2023/05/23 11:02:24;;;;;;;12.47;7.47;;;;;;;42.98;35.20;101086.97;5105906;28;20923;-80
2023/05/23 11:05:21;;;;;;;12.40;7.80;;;;;;;42.92;35.93;101081.72;5094752;28;20419;-79
2023/05/23 11:08:09;;;;;;;18.43;7.40;;;;;;;42.83;35.58;101078.25;5082304;28;20465;-78
2023/05/23 11:10:53;;;;;;;12.53;7.20;;;;;;;42.92;35.45;101078.19;5072980;28;20921;-81
2023/05/23 11:13:20;;;;;;;10.63;5.83;;;;;;;42.87;35.36;101068.28;5083403;28;20435;-78
2023/05/23 11:15:46;;;;;;;11.70;5.23;;;;;;;42.99;34.94;101066.75;5092723;28;20919;-82
2023/05/23 11:18:25;;;;;;;10.80;6.37;;;;;;;43.01;35.41;101064.47;5092282;28;20423;-81
2023/05/23 11:20:53;;;;;;;12.00;7.63;;;;;;;43.06;35.50;101056.88;5092840;28;20416;-79
2023/05/23 11:23:20;;;;;;;13.73;7.63;;;;;;;43.08;35.51;101042.88;5110146;28;20451;-81